Woodlawn, Virginia
Current Conditions -  °F | °C
As of 6:15 AM on Thursday 23 Oct 2014 (Local Time) from KHLX Reporting Station
Overcast Overcast  
Wind Chill: 34°   Ceiling: 1700
Heat Index: 42°   Visibility: 10mi
Dew Point: 37°   Wind: 17mph
Humidity: 82%   Direction: 330°NNW
Pressure: 30.09"   Gusts: 21mph
Location:  36.72°N, 80.82°W
Report Text: KHLX 231015Z AUTO 33015G18KT 10SM OVC017 06/03 A3009 RMK AO2 T00560028
Loading
Personal Weather Stations






























Interactive Weather Map
Tropical Storm Tracking
New forecast layout! Learn more

10-Day Weather Forecast

Advertisements
Track Severe Weather on mobile